Time,TemperatureF,DewpointF,PressureIn,WindDirection,WindDirectionDegrees,WindSpeedMPH,WindSpeedGustMPH,Humidity,HourlyPrecipIn,Conditions,Clouds,dailyrainin,SoftwareType,DateUTC
2013-01-18 00:01:00,7.5,-12.2,30.09,NW,309,0.0,0.0,39,0.00,,---,0.00,VWS V14.01,2013-01-18 06:01:00,
2013-01-18 00:06:00,7.5,-12.2,30.09,NW,309,0.0,0.0,39,0.00,,---,0.00,VWS V14.01,2013-01-18 06:06:00,
2013-01-18 00:12:00,7.7,-12.1,30.09,NW,309,0.0,0.0,39,0.00,,---,0.00,VWS V14.01,2013-01-18 06:12:00,
2013-01-18 00:17:00,7.7,-12.1,30.09,NW,309,0.0,0.0,39,0.00,,---,0.00,VWS V14.01,2013-01-18 06:17:00,
2013-01-18 00:22:00,7.7,-12.1,30.09,NW,309,0.0,0.0,39,0.00,,---,0.00,VWS V14.01,2013-01-18 06:22:00,
2013-01-18 00:28:00,7.9,-11.9,30.09,NW,309,0.0,0.0,39,0.00,,---,0.00,VWS V14.01,2013-01-18 06:28:00,
2013-01-18 00:33:00,7.9,-11.9,30.06,NW,309,0.0,0.0,39,0.00,,---,0.00,VWS V14.01,2013-01-18 06:33:00,
2013-01-18 00:39:00,7.9,-11.9,30.06,NW,309,0.0,0.0,39,0.00,,---,0.00,VWS V14.01,2013-01-18 06:39:00,
2013-01-18 00:44:00,8.1,-11.8,30.06,NW,309,0.0,0.0,39,0.00,,---,0.00,VWS V14.01,2013-01-18 06:44:00,
2013-01-18 00:49:00,8.1,-11.8,30.06,NW,309,0.0,0.0,39,0.00,,---,0.00,VWS V14.01,2013-01-18 06:49:00,
2013-01-18 00:54:00,8.2,-11.6,30.06,NW,309,0.0,0.0,39,0.00,,---,0.00,VWS V14.01,2013-01-18 06:54:00,
2013-01-18 01:00:00,8.4,-11.4,30.06,NW,309,0.0,0.0,39,0.00,,---,0.00,VWS V14.01,2013-01-18 07:00:00,
2013-01-18 01:06:00,8.4,-11.4,30.06,NW,309,0.0,0.0,39,0.00,,---,0.00,VWS V14.01,2013-01-18 07:06:00,
2013-01-18 01:11:00,8.4,-11.4,30.06,NW,309,0.0,0.0,39,0.00,,---,0.00,VWS V14.01,2013-01-18 07:11:00,
2013-01-18 01:17:00,8.6,-11.3,30.06,NW,309,0.0,0.0,39,0.00,,---,0.00,VWS V14.01,2013-01-18 07:17:00,
2013-01-18 01:22:00,8.6,-11.3,30.06,NW,309,0.0,0.0,39,0.00,,---,0.00,VWS V14.01,2013-01-18 07:22:00,
2013-01-18 01:27:00,8.6,-11.3,30.06,NW,309,0.0,0.0,39,0.00,,---,0.00,VWS V14.01,2013-01-18 07:27:00,
2013-01-18 01:32:00,8.8,-11.1,30.06,NW,309,0.0,0.0,39,0.00,,---,0.00,VWS V14.01,2013-01-18 07:32:00,
2013-01-18 01:37:00,8.8,-11.1,30.06,NW,309,0.0,0.0,39,0.00,,---,0.00,VWS V14.01,2013-01-18 07:37:00,
2013-01-18 01:42:00,8.8,-11.1,30.06,NW,309,0.0,0.0,39,0.00,,---,0.00,VWS V14.01,2013-01-18 07:42:00,
2013-01-18 01:47:00,8.8,-11.1,30.03,NW,309,0.0,0.0,39,0.00,,---,0.00,VWS V14.01,2013-01-18 07:47:00,
2013-01-18 01:53:00,8.8,-11.1,30.03,NW,309,0.0,0.0,39,0.00,,---,0.00,VWS V14.01,2013-01-18 07:53:00,
2013-01-18 01:58:00,8.8,-11.1,30.03,NW,309,0.0,0.0,39,0.00,,---,0.00,VWS V14.01,2013-01-18 07:58:00,
2013-01-18 02:03:00,8.8,-11.1,30.00,NW,310,0.0,0.0,39,0.00,,---,0.00,VWS V14.01,2013-01-18 08:03:00,
2013-01-18 02:08:00,8.8,-11.1,30.00,NW,311,0.0,0.0,39,0.00,,---,0.00,VWS V14.01,2013-01-18 08:08:00,
2013-01-18 02:13:00,8.8,-11.1,30.00,NW,311,0.0,0.0,39,0.00,,---,0.00,VWS V14.01,2013-01-18 08:13:00,
2013-01-18 02:18:00,9.0,-10.9,30.00,NW,311,0.0,0.0,39,0.00,,---,0.00,VWS V14.01,2013-01-18 08:18:00,
2013-01-18 02:23:00,9.0,-10.9,30.00,NW,311,0.0,0.0,39,0.00,,---,0.00,VWS V14.01,2013-01-18 08:23:00,
2013-01-18 02:28:00,9.1,-10.8,30.00,NW,311,0.0,0.0,39,0.00,,---,0.00,VWS V14.01,2013-01-18 08:28:00,
2013-01-18 02:33:00,9.1,-10.8,30.00,NW,311,0.0,0.0,39,0.00,,---,0.00,VWS V14.01,2013-01-18 08:33:00,
2013-01-18 02:38:00,9.1,-10.8,30.00,NW,311,0.0,0.0,39,0.00,,---,0.00,VWS V14.01,2013-01-18 08:38:00,
2013-01-18 02:43:00,9.3,-10.6,30.00,NW,312,0.0,0.0,39,0.00,,---,0.00,VWS V14.01,2013-01-18 08:43:00,
2013-01-18 02:48:00,9.3,-10.6,30.00,NNW,329,0.0,0.0,39,0.00,,---,0.00,VWS V14.01,2013-01-18 08:48:00,
2013-01-18 02:54:00,9.5,-10.5,30.00,NNW,346,0.0,0.0,39,0.00,,---,0.00,VWS V14.01,2013-01-18 08:54:00,
2013-01-18 02:59:00,9.5,-10.5,30.00,North,0,0.0,0.0,39,0.00,,---,0.00,VWS V14.01,2013-01-18 08:59:00,
2013-01-18 03:05:00,9.7,-10.3,29.97,East,96,0.0,0.0,39,0.00,,---,0.00,VWS V14.01,2013-01-18 09:05:00,
2013-01-18 03:11:00,9.9,-10.1,29.97,East,81,0.0,0.0,39,0.00,,---,0.00,VWS V14.01,2013-01-18 09:11:00,
2013-01-18 03:16:00,10.0,-10.0,29.97,East,90,0.0,0.0,39,0.00,,---,0.00,VWS V14.01,2013-01-18 09:16:00,
2013-01-18 03:22:00,10.2,-9.8,29.94,East,98,0.0,0.0,39,0.00,,---,0.00,VWS V14.01,2013-01-18 09:22:00,
2013-01-18 03:27:00,10.2,-9.8,29.94,ENE,57,0.0,0.0,39,0.00,,---,0.00,VWS V14.01,2013-01-18 09:27:00,
2013-01-18 03:32:00,10.4,-9.6,29.94,East,100,0.0,0.0,39,0.00,,---,0.00,VWS V14.01,2013-01-18 09:32:00,
2013-01-18 03:37:00,10.6,-9.5,29.94,East,87,0.0,0.0,39,0.00,,---,0.00,VWS V14.01,2013-01-18 09:37:00,
2013-01-18 03:42:00,10.8,-9.3,29.94,ESE,110,0.0,0.0,39,0.00,,---,0.00,VWS V14.01,2013-01-18 09:42:00,
2013-01-18 03:48:00,10.8,-9.3,29.94,SSE,154,2.7,2.7,39,0.00,,---,0.00,VWS V14.01,2013-01-18 09:48:00,
2013-01-18 03:53:00,10.9,-9.1,29.94,East,93,0.0,0.0,39,0.00,,---,0.00,VWS V14.01,2013-01-18 09:53:00,
2013-01-18 03:58:00,11.1,-9.0,29.94,ENE,77,2.7,3.6,39,0.00,,---,0.00,VWS V14.01,2013-01-18 09:58:00,
2013-01-18 04:03:00,11.1,-9.0,29.91,SE,130,4.0,4.0,39,0.00,,---,0.00,VWS V14.01,2013-01-18 10:03:00,
2013-01-18 04:09:00,11.1,-9.0,29.91,East,83,0.0,0.0,39,0.00,,---,0.00,VWS V14.01,2013-01-18 10:09:00,
2013-01-18 04:14:00,11.3,-8.8,29.91,East,90,0.0,0.0,39,0.00,,---,0.00,VWS V14.01,2013-01-18 10:14:00,
2013-01-18 04:19:00,11.3,-8.8,29.91,ENE,63,0.0,0.0,39,0.00,,---,0.00,VWS V14.01,2013-01-18 10:19:00,
2013-01-18 04:25:00,11.5,-8.7,29.91,SE,136,0.0,2.7,39,0.00,,---,0.00,VWS V14.01,2013-01-18 10:25:00,
2013-01-18 04:31:00,11.5,-8.7,29.91,East,93,4.0,4.5,39,0.00,,---,0.00,VWS V14.01,2013-01-18 10:31:00,
2013-01-18 04:37:00,11.7,-8.5,29.88,East,99,0.0,0.0,39,0.00,,---,0.00,VWS V14.01,2013-01-18 10:37:00,
2013-01-18 04:42:00,11.7,-8.5,29.88,East,98,0.0,0.0,39,0.00,,---,0.00,VWS V14.01,2013-01-18 10:42:00,
2013-01-18 04:48:00,11.7,-8.5,29.88,ESE,103,0.0,0.0,39,0.00,,---,0.00,VWS V14.01,2013-01-18 10:48:00,
2013-01-18 04:53:00,11.7,-8.5,29.88,ESE,105,0.0,0.0,39,0.00,,---,0.00,VWS V14.01,2013-01-18 10:53:00,
2013-01-18 04:59:00,11.8,-8.3,29.88,ESE,105,0.0,0.0,39,0.00,,---,0.00,VWS V14.01,2013-01-18 10:59:00,
2013-01-18 05:04:00,11.8,-8.3,29.88,NE,56,0.0,0.0,39,0.00,,---,0.00,VWS V14.01,2013-01-18 11:04:00,
2013-01-18 05:09:00,11.8,-8.3,29.88,East,89,0.0,0.0,39,0.00,,---,0.00,VWS V14.01,2013-01-18 11:09:00,
2013-01-18 05:14:00,12.0,-8.2,29.88,East,90,0.0,0.0,39,0.00,,---,0.00,VWS V14.01,2013-01-18 11:14:00,
2013-01-18 05:19:00,12.0,-8.2,29.85,East,94,0.0,0.0,39,0.00,,---,0.00,VWS V14.01,2013-01-18 11:19:00,
2013-01-18 05:25:00,12.2,-8.0,29.85,East,94,0.0,0.0,39,0.00,,---,0.00,VWS V14.01,2013-01-18 11:25:00,
2013-01-18 05:30:00,12.2,-8.0,29.85,East,81,0.0,0.0,39,0.00,,---,0.00,VWS V14.01,2013-01-18 11:30:00,
2013-01-18 05:35:00,12.2,-8.0,29.83,East,90,0.0,0.0,39,0.00,,---,0.00,VWS V14.01,2013-01-18 11:35:00,
2013-01-18 05:40:00,12.4,-7.8,29.83,East,85,0.0,0.0,39,0.00,,---,0.00,VWS V14.01,2013-01-18 11:40:00,
2013-01-18 05:46:00,12.6,-7.7,29.83,East,95,0.0,0.0,39,0.00,,---,0.00,VWS V14.01,2013-01-18 11:46:00,
2013-01-18 05:52:00,12.6,-7.7,29.83,ENE,78,0.0,0.0,39,0.00,,---,0.00,VWS V14.01,2013-01-18 11:52:00,
2013-01-18 05:58:00,12.6,-7.7,29.83,East,84,0.0,0.0,39,0.00,,---,0.00,VWS V14.01,2013-01-18 11:58:00,
2013-01-18 06:04:00,12.7,-7.5,29.83,East,80,0.0,0.0,39,0.00,,---,0.00,VWS V14.01,2013-01-18 12:04:00,
2013-01-18 06:09:00,12.7,-7.5,29.83,East,92,0.0,0.0,39,0.00,,---,0.00,VWS V14.01,2013-01-18 12:09:00,
2013-01-18 06:15:00,12.7,-7.5,29.83,East,91,0.0,0.0,39,0.00,,---,0.00,VWS V14.01,2013-01-18 12:15:00,
2013-01-18 06:21:00,12.7,-7.5,29.80,East,88,0.0,0.0,39,0.00,,---,0.00,VWS V14.01,2013-01-18 12:21:00,
2013-01-18 06:27:00,12.7,-7.5,29.80,East,88,0.0,0.0,39,0.00,,---,0.00,VWS V14.01,2013-01-18 12:27:00,
2013-01-18 06:32:00,12.7,-7.5,29.80,East,88,0.0,0.0,39,0.00,,---,0.00,VWS V14.01,2013-01-18 12:32:00,
2013-01-18 06:37:00,12.9,-7.4,29.80,ESE,102,0.0,0.0,39,0.00,,---,0.00,VWS V14.01,2013-01-18 12:37:00,
2013-01-18 06:42:00,12.9,-7.4,29.80,ESE,102,0.0,0.0,39,0.00,,---,0.00,VWS V14.01,2013-01-18 12:42:00,
2013-01-18 06:47:00,13.1,-7.2,29.80,ESE,102,0.0,0.0,39,0.00,,---,0.00,VWS V14.01,2013-01-18 12:47:00,
2013-01-18 06:52:00,13.3,-7.0,29.80,ESE,102,0.0,0.0,39,0.00,,---,0.00,VWS V14.01,2013-01-18 12:52:00,
2013-01-18 06:58:00,13.3,-7.0,29.80,ESE,103,0.0,0.0,39,0.00,,---,0.00,VWS V14.01,2013-01-18 12:58:00,
2013-01-18 07:03:00,13.5,-6.9,29.80,ESE,103,0.0,0.0,39,0.00,,---,0.00,VWS V14.01,2013-01-18 13:03:00,
2013-01-18 07:08:00,13.5,-6.9,29.80,ESE,103,0.0,0.0,39,0.00,,---,0.00,VWS V14.01,2013-01-18 13:08:00,
2013-01-18 07:13:00,13.6,-6.7,29.80,ESE,103,0.0,0.0,39,0.00,,---,0.00,VWS V14.01,2013-01-18 13:13:00,
2013-01-18 07:19:00,13.6,-6.7,29.80,ESE,103,0.0,0.0,39,0.00,,---,0.00,VWS V14.01,2013-01-18 13:19:00,
2013-01-18 07:25:00,13.8,-6.6,29.80,ESE,103,0.0,0.0,39,0.00,,---,0.00,VWS V14.01,2013-01-18 13:25:00,
2013-01-18 07:30:00,13.8,-6.6,29.80,ESE,103,0.0,0.0,39,0.00,,---,0.00,VWS V14.01,2013-01-18 13:30:00,
2013-01-18 07:36:00,14.2,2.5,29.80,ESE,103,0.0,0.0,59,0.00,,---,0.00,VWS V14.01,2013-01-18 13:36:00,
2013-01-18 07:41:00,14.2,2.5,29.80,ESE,103,0.0,0.0,59,0.00,,---,0.00,VWS V14.01,2013-01-18 13:41:00,
2013-01-18 07:47:00,14.4,2.7,29.80,ESE,103,0.0,0.0,59,0.00,,---,0.00,VWS V14.01,2013-01-18 13:47:00,
2013-01-18 07:53:00,14.4,2.7,29.80,ESE,103,0.0,0.0,59,0.00,,---,0.00,VWS V14.01,2013-01-18 13:53:00,
2013-01-18 07:59:00,14.5,2.8,29.80,ESE,103,0.0,0.0,59,0.00,,---,0.00,VWS V14.01,2013-01-18 13:59:00,
2013-01-18 08:04:00,14.5,2.8,29.77,ESE,103,0.0,0.0,59,0.00,,---,0.00,VWS V14.01,2013-01-18 14:04:00,
2013-01-18 08:09:00,14.7,3.0,29.77,ESE,103,0.0,0.0,59,0.00,,---,0.00,VWS V14.01,2013-01-18 14:09:00,
2013-01-18 08:15:00,14.9,3.2,29.77,ESE,103,0.0,0.0,59,0.00,,---,0.00,VWS V14.01,2013-01-18 14:15:00,
2013-01-18 08:21:00,14.9,3.2,29.77,ESE,103,0.0,0.0,59,0.00,,---,0.00,VWS V14.01,2013-01-18 14:21:00,
2013-01-18 08:26:00,15.1,3.7,29.77,ESE,103,0.0,0.0,60,0.00,,---,0.00,VWS V14.01,2013-01-18 14:26:00,
2013-01-18 08:32:00,15.3,3.9,29.77,ESE,103,0.0,0.0,60,0.00,,---,0.00,VWS V14.01,2013-01-18 14:32:00,
2013-01-18 08:38:00,15.4,4.1,29.77,ESE,103,0.0,0.0,60,0.00,,---,0.00,VWS V14.01,2013-01-18 14:38:00,
2013-01-18 08:43:00,15.6,4.2,29.77,ESE,103,0.0,0.0,60,0.00,,---,0.00,VWS V14.01,2013-01-18 14:43:00,
2013-01-18 08:48:00,15.8,4.4,29.77,ESE,103,0.0,0.0,60,0.00,,---,0.00,VWS V14.01,2013-01-18 14:48:00,
2013-01-18 08:53:00,16.0,4.2,29.77,ESE,103,0.0,0.0,59,0.00,,---,0.00,VWS V14.01,2013-01-18 14:53:00,
2013-01-18 08:58:00,16.0,4.2,29.77,ESE,103,0.0,0.0,59,0.00,,---,0.00,VWS V14.01,2013-01-18 14:58:00,
2013-01-18 09:03:00,16.2,4.4,29.74,ESE,103,0.0,0.0,59,0.00,,---,0.00,VWS V14.01,2013-01-18 15:03:00,
2013-01-18 09:09:00,16.5,5.1,29.74,ESE,103,0.0,0.0,60,0.00,,---,0.00,VWS V14.01,2013-01-18 15:09:00,
2013-01-18 09:14:00,16.7,5.2,29.74,ESE,103,0.0,0.0,60,0.00,,---,0.00,VWS V14.01,2013-01-18 15:14:00,
2013-01-18 09:20:00,16.9,5.4,29.74,ESE,103,0.0,0.0,60,0.00,,---,0.00,VWS V14.01,2013-01-18 15:20:00,
2013-01-18 09:25:00,17.1,5.6,29.74,ESE,103,0.0,0.0,60,0.00,,---,0.00,VWS V14.01,2013-01-18 15:25:00,
2013-01-18 09:31:00,17.4,5.9,29.74,ESE,103,0.0,0.0,60,0.00,,---,0.00,VWS V14.01,2013-01-18 15:31:00,
2013-01-18 09:36:00,17.6,6.1,29.74,ESE,103,0.0,0.0,60,0.00,,---,0.00,VWS V14.01,2013-01-18 15:36:00,
2013-01-18 09:42:00,18.0,6.1,29.74,ESE,103,0.0,0.0,59,0.00,,---,0.00,VWS V14.01,2013-01-18 15:42:00,
2013-01-18 09:47:00,18.3,6.4,29.74,ESE,103,0.0,0.0,59,0.00,,---,0.00,VWS V14.01,2013-01-18 15:47:00,
2013-01-18 09:52:00,18.5,6.6,29.74,ENE,69,0.0,0.0,59,0.00,,---,0.00,VWS V14.01,2013-01-18 15:52:00,
2013-01-18 09:58:00,18.9,6.9,29.74,ENE,70,0.0,0.0,59,0.00,,---,0.00,VWS V14.01,2013-01-18 15:58:00,
2013-01-18 10:04:00,19.2,7.2,29.74,ENE,70,0.0,0.0,59,0.00,,---,0.00,VWS V14.01,2013-01-18 16:04:00,
2013-01-18 10:09:00,19.6,7.6,29.74,ENE,70,0.0,0.0,59,0.00,,---,0.00,VWS V14.01,2013-01-18 16:09:00,
2013-01-18 10:15:00,20.1,8.1,29.74,ENE,70,0.0,0.0,59,0.00,,---,0.00,VWS V14.01,2013-01-18 16:15:00,
2013-01-18 10:21:00,20.7,8.6,29.74,ENE,70,0.0,0.0,59,0.00,,---,0.00,VWS V14.01,2013-01-18 16:21:00,
2013-01-18 10:27:00,21.2,9.1,29.74,ENE,70,0.0,0.0,59,0.00,,---,0.00,VWS V14.01,2013-01-18 16:27:00,
2013-01-18 10:33:00,21.6,9.1,29.74,ENE,70,0.0,0.0,58,0.00,,---,0.00,VWS V14.01,2013-01-18 16:33:00,
2013-01-18 10:39:00,21.7,9.2,29.74,ENE,70,0.0,0.0,58,0.00,,---,0.00,VWS V14.01,2013-01-18 16:39:00,
2013-01-18 10:44:00,21.9,9.0,29.74,ENE,70,0.0,0.0,57,0.00,,---,0.00,VWS V14.01,2013-01-18 16:44:00,
2013-01-18 10:49:00,22.1,8.8,29.74,NNE,28,0.0,0.0,56,0.00,,---,0.00,VWS V14.01,2013-01-18 16:49:00,
2013-01-18 10:54:00,22.6,9.3,29.74,NNE,28,0.0,0.0,56,0.00,,---,0.00,VWS V14.01,2013-01-18 16:54:00,
2013-01-18 11:00:00,23.2,9.4,29.74,NNE,28,0.0,0.0,55,0.00,,---,0.00,VWS V14.01,2013-01-18 17:00:00,
2013-01-18 11:06:00,23.7,9.9,29.74,NNE,28,0.0,0.0,55,0.00,,---,0.00,VWS V14.01,2013-01-18 17:06:00,
2013-01-18 11:12:00,24.6,10.8,29.74,NNE,28,0.0,0.0,55,0.00,,---,0.00,VWS V14.01,2013-01-18 17:12:00,
2013-01-18 11:17:00,25.3,10.6,29.71,NNE,28,0.0,0.0,53,0.00,,---,0.00,VWS V14.01,2013-01-18 17:17:00,
2013-01-18 11:22:00,25.3,9.8,29.71,NNE,28,0.0,0.0,51,0.00,,---,0.00,VWS V14.01,2013-01-18 17:22:00,
2013-01-18 11:28:00,25.0,7.6,29.71,NNE,28,0.0,0.0,47,0.00,,---,0.00,VWS V14.01,2013-01-18 17:28:00,
2013-01-18 11:33:00,24.6,7.3,29.71,NNE,28,0.0,0.0,47,0.00,,---,0.00,VWS V14.01,2013-01-18 17:33:00,
2013-01-18 11:39:00,24.8,7.9,29.71,NNE,28,0.0,0.0,48,0.00,,---,0.00,VWS V14.01,2013-01-18 17:39:00,
2013-01-18 11:44:00,25.2,8.2,29.71,NNE,28,0.0,0.0,48,0.00,,---,0.00,VWS V14.01,2013-01-18 17:44:00,
2013-01-18 11:50:00,25.5,8.1,29.68,NNE,28,0.0,2.7,47,0.00,,---,0.00,VWS V14.01,2013-01-18 17:50:00,
2013-01-18 11:55:00,25.9,8.4,29.68,NNE,28,0.0,0.0,47,0.00,,---,0.00,VWS V14.01,2013-01-18 17:55:00,
2013-01-18 12:00:00,26.4,8.9,29.68,NNE,28,0.0,0.0,47,0.00,,---,0.00,VWS V14.01,2013-01-18 18:00:00,
2013-01-18 12:05:00,26.8,8.8,29.68,NNE,28,0.0,0.0,46,0.00,,---,0.00,VWS V14.01,2013-01-18 18:05:00,
2013-01-18 12:10:00,27.0,8.5,29.68,NNE,28,0.0,0.0,45,0.00,,---,0.00,VWS V14.01,2013-01-18 18:10:00,
2013-01-18 12:15:00,26.8,7.8,29.68,NNE,28,0.0,0.0,44,0.00,,---,0.00,VWS V14.01,2013-01-18 18:15:00,
2013-01-18 12:21:00,27.0,8.5,29.65,NNE,28,0.0,0.0,45,0.00,,---,0.00,VWS V14.01,2013-01-18 18:21:00,
2013-01-18 12:26:00,27.9,9.3,29.65,NNE,28,0.0,0.0,45,0.00,,---,0.00,VWS V14.01,2013-01-18 18:26:00,
2013-01-18 12:31:00,28.8,10.1,29.65,NNE,28,0.0,2.2,45,0.00,,---,0.00,VWS V14.01,2013-01-18 18:31:00,
2013-01-18 12:36:00,29.1,9.9,29.65,NNE,28,0.0,0.0,44,0.00,,---,0.00,VWS V14.01,2013-01-18 18:36:00,
2013-01-18 12:42:00,28.8,9.6,29.65,NNE,28,0.0,0.0,44,0.00,,---,0.00,VWS V14.01,2013-01-18 18:42:00,
2013-01-18 12:47:00,28.4,9.3,29.65,NNE,28,0.0,0.0,44,0.00,,---,0.00,VWS V14.01,2013-01-18 18:47:00,
2013-01-18 12:53:00,28.2,9.6,29.65,NNE,28,0.0,0.0,45,0.00,,---,0.00,VWS V14.01,2013-01-18 18:53:00,
2013-01-18 12:59:00,28.6,9.9,29.65,NNE,28,0.0,0.0,45,0.00,,---,0.00,VWS V14.01,2013-01-18 18:59:00,
2013-01-18 13:04:00,28.9,9.8,29.65,NNE,28,0.0,0.0,44,0.00,,---,0.00,VWS V14.01,2013-01-18 19:04:00,
2013-01-18 13:10:00,28.9,9.8,29.65,NNE,28,0.0,0.0,44,0.00,,---,0.00,VWS V14.01,2013-01-18 19:10:00,
2013-01-18 13:16:00,28.8,9.6,29.65,NNE,28,0.0,0.0,44,0.00,,---,0.00,VWS V14.01,2013-01-18 19:16:00,
2013-01-18 13:21:00,28.2,9.6,29.68,NW,310,4.0,4.0,45,0.00,,---,0.00,VWS V14.01,2013-01-18 19:21:00,
2013-01-18 13:27:00,28.0,9.4,29.68,WNW,294,0.0,0.0,45,0.00,,---,0.00,VWS V14.01,2013-01-18 19:27:00,
2013-01-18 13:32:00,27.7,9.6,29.68,WNW,292,2.7,3.1,46,0.00,,---,0.00,VWS V14.01,2013-01-18 19:32:00,
2013-01-18 13:37:00,27.1,9.6,29.68,WNW,286,5.8,6.3,47,0.00,,---,0.00,VWS V14.01,2013-01-18 19:37:00,
2013-01-18 13:43:00,26.8,9.3,29.68,NW,319,4.0,4.0,47,0.00,,---,0.00,VWS V14.01,2013-01-18 19:43:00,
2013-01-18 13:49:00,26.8,9.3,29.68,NW,319,3.1,3.6,47,0.00,,---,0.00,VWS V14.01,2013-01-18 19:49:00,
2013-01-18 13:55:00,27.0,9.4,29.68,NW,312,0.0,0.0,47,0.00,,---,0.00,VWS V14.01,2013-01-18 19:55:00,
2013-01-18 14:01:00,27.5,10.4,29.68,NNW,327,0.0,0.0,48,0.00,,---,0.00,VWS V14.01,2013-01-18 20:01:00,
2013-01-18 14:06:00,28.2,10.6,29.65,SE,125,0.0,0.0,47,0.00,,---,0.00,VWS V14.01,2013-01-18 20:06:00,
2013-01-18 14:12:00,28.6,10.4,29.65,SE,144,0.0,0.0,46,0.00,,---,0.00,VWS V14.01,2013-01-18 20:12:00,
2013-01-18 14:18:00,29.1,10.9,29.62,ENE,64,0.0,0.0,46,0.00,,---,0.00,VWS V14.01,2013-01-18 20:18:00,
2013-01-18 14:23:00,29.3,10.6,29.62,NW,318,0.0,0.0,45,0.00,,---,0.00,VWS V14.01,2013-01-18 20:23:00,
2013-01-18 14:29:00,29.5,10.8,29.62,NNW,330,0.0,0.0,45,0.00,,---,0.00,VWS V14.01,2013-01-18 20:29:00,
2013-01-18 14:34:00,29.5,10.8,29.62,NNW,331,0.0,0.0,45,0.00,,---,0.00,VWS V14.01,2013-01-18 20:34:00,
2013-01-18 14:39:00,29.5,10.8,29.62,NNW,331,0.0,0.0,45,0.00,,---,0.00,VWS V14.01,2013-01-18 20:39:00,
2013-01-18 14:44:00,29.5,10.8,29.62,NNW,331,0.0,0.0,45,0.00,,---,0.00,VWS V14.01,2013-01-18 20:44:00,
2013-01-18 14:50:00,29.5,10.8,29.65,NNW,331,0.0,0.0,45,0.00,,---,0.00,VWS V14.01,2013-01-18 20:50:00,
2013-01-18 14:57:00,28.9,9.8,29.65,NNW,343,3.1,3.1,44,0.00,,---,0.00,VWS V14.01,2013-01-18 20:57:00,
2013-01-18 15:02:00,28.2,9.1,29.65,NW,325,2.7,4.0,44,0.00,,---,0.00,VWS V14.01,2013-01-18 21:02:00,
2013-01-18 15:08:00,27.7,9.1,29.65,NNW,334,0.0,4.9,45,0.00,,---,0.00,VWS V14.01,2013-01-18 21:08:00,
2013-01-18 15:13:00,27.3,9.3,29.65,NW,308,0.0,0.0,46,0.00,,---,0.00,VWS V14.01,2013-01-18 21:13:00,
2013-01-18 15:19:00,27.1,9.1,29.65,NNW,328,3.6,4.0,46,0.00,,---,0.00,VWS V14.01,2013-01-18 21:19:00,
2013-01-18 15:24:00,27.1,9.6,29.65,WNW,296,0.0,0.0,47,0.00,,---,0.00,VWS V14.01,2013-01-18 21:24:00,
2013-01-18 15:30:00,27.0,9.4,29.65,NW,308,0.0,0.0,47,0.00,,---,0.00,VWS V14.01,2013-01-18 21:30:00,
2013-01-18 15:35:00,27.0,9.9,29.65,NW,308,0.0,0.0,48,0.00,,---,0.00,VWS V14.01,2013-01-18 21:35:00,
2013-01-18 15:40:00,27.0,9.4,29.65,NW,307,0.0,0.0,47,0.00,,---,0.00,VWS V14.01,2013-01-18 21:40:00,
2013-01-18 15:45:00,26.8,9.3,29.65,NW,307,0.0,0.0,47,0.00,,---,0.00,VWS V14.01,2013-01-18 21:45:00,
2013-01-18 15:50:00,26.8,9.7,29.65,NW,307,0.0,0.0,48,0.00,,---,0.00,VWS V14.01,2013-01-18 21:50:00,
2013-01-18 15:56:00,27.3,9.8,29.65,NW,307,0.0,0.0,47,0.00,,---,0.00,VWS V14.01,2013-01-18 21:56:00,
2013-01-18 16:01:00,27.9,10.3,29.65,NW,307,0.0,0.0,47,0.00,,---,0.00,VWS V14.01,2013-01-18 22:01:00,
2013-01-18 16:06:00,28.2,10.6,29.65,NW,307,0.0,0.0,47,0.00,,---,0.00,VWS V14.01,2013-01-18 22:06:00,
2013-01-18 16:11:00,28.6,10.4,29.65,NW,307,0.0,0.0,46,0.00,,---,0.00,VWS V14.01,2013-01-18 22:11:00,
2013-01-18 16:16:00,28.8,10.1,29.65,NW,307,0.0,0.0,45,0.00,,---,0.00,VWS V14.01,2013-01-18 22:16:00,
2013-01-18 16:21:00,28.8,9.6,29.65,NW,307,0.0,0.0,44,0.00,,---,0.00,VWS V14.01,2013-01-18 22:21:00,
2013-01-18 16:27:00,28.2,9.6,29.65,NW,307,0.0,0.0,45,0.00,,---,0.00,VWS V14.01,2013-01-18 22:27:00,
2013-01-18 16:33:00,28.0,9.4,29.65,NW,307,0.0,0.0,45,0.00,,---,0.00,VWS V14.01,2013-01-18 22:33:00,
2013-01-18 16:38:00,27.9,9.3,29.65,NW,307,0.0,0.0,45,0.00,,---,0.00,VWS V14.01,2013-01-18 22:38:00,
2013-01-18 16:43:00,27.7,9.1,29.65,NW,307,0.0,0.0,45,0.00,,---,0.00,VWS V14.01,2013-01-18 22:43:00,
2013-01-18 16:48:00,27.0,8.0,29.65,NW,307,0.0,0.0,44,0.00,,---,0.00,VWS V14.01,2013-01-18 22:48:00,
2013-01-18 16:54:00,25.0,5.7,29.65,NW,307,0.0,0.0,43,0.00,,---,0.00,VWS V14.01,2013-01-18 22:54:00,
2013-01-18 16:59:00,23.7,5.0,29.65,NW,307,0.0,0.0,44,0.00,,---,0.00,VWS V14.01,2013-01-18 22:59:00,
2013-01-18 17:04:00,23.2,4.5,29.68,NW,307,0.0,0.0,44,0.00,,---,0.00,VWS V14.01,2013-01-18 23:04:00,
2013-01-18 17:09:00,22.6,4.5,29.68,NW,307,0.0,0.0,45,0.00,,---,0.00,VWS V14.01,2013-01-18 23:09:00,
2013-01-18 17:15:00,22.1,4.0,29.68,NW,307,0.0,0.0,45,0.00,,---,0.00,VWS V14.01,2013-01-18 23:15:00,
2013-01-18 17:21:00,21.9,4.3,29.68,NW,307,0.0,0.0,46,0.00,,---,0.00,VWS V14.01,2013-01-18 23:21:00,
2013-01-18 17:26:00,21.6,4.0,29.68,NW,307,0.0,0.0,46,0.00,,---,0.00,VWS V14.01,2013-01-18 23:26:00,
2013-01-18 17:32:00,21.2,3.7,29.68,NW,307,0.0,0.0,46,0.00,,---,0.00,VWS V14.01,2013-01-18 23:32:00,
2013-01-18 17:38:00,20.7,3.2,29.71,NW,307,0.0,0.0,46,0.00,,---,0.00,VWS V14.01,2013-01-18 23:38:00,
2013-01-18 17:43:00,19.9,2.5,29.71,NW,307,0.0,0.0,46,0.00,,---,0.00,VWS V14.01,2013-01-18 23:43:00,
2013-01-18 17:48:00,19.4,2.9,29.71,NW,307,0.0,0.0,48,0.00,,---,0.00,VWS V14.01,2013-01-18 23:48:00,
2013-01-18 17:53:00,19.4,3.4,29.71,NW,307,0.0,0.0,49,0.00,,---,0.00,VWS V14.01,2013-01-18 23:53:00,
2013-01-18 17:59:00,19.0,3.0,29.71,NW,307,0.0,0.0,49,0.00,,---,0.00,VWS V14.01,2013-01-18 23:59:00,
2013-01-18 18:04:00,18.5,2.1,29.68,NW,307,0.0,0.0,48,0.00,,---,0.00,VWS V14.01,2013-01-19 00:04:00,
2013-01-18 18:09:00,18.7,4.0,29.68,NW,307,0.0,0.0,52,0.00,,---,0.00,VWS V14.01,2013-01-19 00:09:00,
2013-01-18 18:15:00,18.7,4.0,29.68,NW,307,0.0,0.0,52,0.00,,---,0.00,VWS V14.01,2013-01-19 00:15:00,
2013-01-18 18:20:00,18.5,3.8,29.68,NW,307,0.0,0.0,52,0.00,,---,0.00,VWS V14.01,2013-01-19 00:20:00,
2013-01-18 18:25:00,18.0,2.9,29.68,NW,307,0.0,0.0,51,0.00,,---,0.00,VWS V14.01,2013-01-19 00:25:00,
2013-01-18 18:30:00,16.7,1.3,29.68,NW,307,0.0,0.0,50,0.00,,---,0.00,VWS V14.01,2013-01-19 00:30:00,
2013-01-18 18:35:00,15.8,0.9,29.68,NW,307,0.0,0.0,51,0.00,,---,0.00,VWS V14.01,2013-01-19 00:35:00,
2013-01-18 18:41:00,15.1,0.2,29.68,NW,307,0.0,0.0,51,0.00,,---,0.00,VWS V14.01,2013-01-19 00:41:00,
2013-01-18 18:46:00,14.9,0.5,29.68,NW,307,0.0,0.0,52,0.00,,---,0.00,VWS V14.01,2013-01-19 00:46:00,
2013-01-18 18:51:00,15.1,1.4,29.68,NW,307,0.0,0.0,54,0.00,,---,0.00,VWS V14.01,2013-01-19 00:51:00,
2013-01-18 18:57:00,15.3,1.6,29.68,NW,307,0.0,0.0,54,0.00,,---,0.00,VWS V14.01,2013-01-19 00:57:00,
2013-01-18 19:02:00,15.4,1.8,29.71,NW,307,0.0,0.0,54,0.00,,---,0.00,VWS V14.01,2013-01-19 01:02:00,
2013-01-18 19:07:00,15.3,1.6,29.71,NW,307,0.0,0.0,54,0.00,,---,0.00,VWS V14.01,2013-01-19 01:07:00,
2013-01-18 19:13:00,14.9,1.3,29.71,NW,307,0.0,0.0,54,0.00,,---,0.00,VWS V14.01,2013-01-19 01:13:00,
2013-01-18 19:18:00,15.1,2.2,29.71,NW,307,0.0,0.0,56,0.00,,---,0.00,VWS V14.01,2013-01-19 01:18:00,
2013-01-18 19:24:00,15.3,2.8,29.71,NW,307,0.0,0.0,57,0.00,,---,0.00,VWS V14.01,2013-01-19 01:24:00,
2013-01-18 19:30:00,14.5,1.3,29.71,NW,307,0.0,0.0,55,0.00,,---,0.00,VWS V14.01,2013-01-19 01:30:00,
2013-01-18 19:35:00,13.8,0.6,29.71,NW,307,0.0,0.0,55,0.00,,---,0.00,VWS V14.01,2013-01-19 01:35:00,
2013-01-18 19:42:00,13.5,0.3,29.71,NW,307,0.0,0.0,55,0.00,,---,0.00,VWS V14.01,2013-01-19 01:42:00,
2013-01-18 19:47:00,13.5,0.3,29.71,NW,307,0.0,0.0,55,0.00,,---,0.00,VWS V14.01,2013-01-19 01:47:00,
2013-01-18 19:52:00,12.9,-0.2,29.71,NW,307,0.0,0.0,55,0.00,,---,0.00,VWS V14.01,2013-01-19 01:52:00,
2013-01-18 19:58:00,12.6,-0.5,29.71,NW,307,0.0,0.0,55,0.00,,---,0.00,VWS V14.01,2013-01-19 01:58:00,
2013-01-18 20:03:00,12.6,-0.5,29.71,NW,307,0.0,0.0,55,0.00,,---,0.00,VWS V14.01,2013-01-19 02:03:00,
2013-01-18 20:09:00,12.6,-0.5,29.71,NW,307,0.0,0.0,55,0.00,,---,0.00,VWS V14.01,2013-01-19 02:09:00,
2013-01-18 20:14:00,13.1,0.0,29.71,NW,311,0.0,0.0,55,0.00,,---,0.00,VWS V14.01,2013-01-19 02:14:00,
2013-01-18 20:20:00,13.6,0.5,29.68,NW,311,0.0,0.0,55,0.00,,---,0.00,VWS V14.01,2013-01-19 02:20:00,
2013-01-18 20:25:00,14.0,2.0,29.68,NW,311,0.0,0.0,58,0.00,,---,0.00,VWS V14.01,2013-01-19 02:25:00,
2013-01-18 20:31:00,14.4,2.3,29.68,NW,311,0.0,0.0,58,0.00,,---,0.00,VWS V14.01,2013-01-19 02:31:00,
2013-01-18 20:36:00,14.7,3.4,29.68,NW,311,0.0,0.0,60,0.00,,---,0.00,VWS V14.01,2013-01-19 02:36:00,
2013-01-18 20:41:00,15.1,3.7,29.68,NW,311,0.0,0.0,60,0.00,,---,0.00,VWS V14.01,2013-01-19 02:41:00,
2013-01-18 20:46:00,15.4,4.1,29.68,NW,311,0.0,0.0,60,0.00,,---,0.00,VWS V14.01,2013-01-19 02:46:00,
2013-01-18 20:51:00,15.8,4.4,29.68,NW,311,0.0,0.0,60,0.00,,---,0.00,VWS V14.01,2013-01-19 02:51:00,
2013-01-18 20:56:00,15.8,4.4,29.68,NW,311,0.0,0.0,60,0.00,,---,0.00,VWS V14.01,2013-01-19 02:56:00,
2013-01-18 21:02:00,16.0,4.2,29.71,NW,311,0.0,0.0,59,0.00,,---,0.00,VWS V14.01,2013-01-19 03:02:00,
2013-01-18 21:07:00,16.0,4.2,29.71,NW,311,0.0,0.0,59,0.00,,---,0.00,VWS V14.01,2013-01-19 03:07:00,
2013-01-18 21:13:00,16.2,4.4,29.71,NW,311,0.0,0.0,59,0.00,,---,0.00,VWS V14.01,2013-01-19 03:13:00,
2013-01-18 21:18:00,16.5,5.1,29.71,NW,311,0.0,0.0,60,0.00,,---,0.00,VWS V14.01,2013-01-19 03:18:00,
2013-01-18 21:24:00,16.7,5.2,29.71,NW,311,0.0,0.0,60,0.00,,---,0.00,VWS V14.01,2013-01-19 03:24:00,
2013-01-18 21:29:00,16.9,5.4,29.71,NW,311,0.0,0.0,60,0.00,,---,0.00,VWS V14.01,2013-01-19 03:29:00,
2013-01-18 21:34:00,17.1,5.9,29.71,NW,311,0.0,0.0,61,0.00,,---,0.00,VWS V14.01,2013-01-19 03:34:00,
2013-01-18 21:39:00,17.4,6.3,29.71,NW,311,0.0,0.0,61,0.00,,---,0.00,VWS V14.01,2013-01-19 03:39:00,
2013-01-18 21:44:00,17.8,6.6,29.71,NW,311,0.0,0.0,61,0.00,,---,0.00,VWS V14.01,2013-01-19 03:44:00,
2013-01-18 21:50:00,18.3,7.1,29.71,NW,311,0.0,0.0,61,0.00,,---,0.00,VWS V14.01,2013-01-19 03:50:00,
2013-01-18 21:55:00,18.7,7.5,29.71,NW,311,0.0,0.0,61,0.00,,---,0.00,VWS V14.01,2013-01-19 03:55:00,
2013-01-18 22:01:00,19.0,7.8,29.71,NW,311,0.0,0.0,61,0.00,,---,0.00,VWS V14.01,2013-01-19 04:01:00,
2013-01-18 22:07:00,19.4,8.2,29.71,NW,311,0.0,0.0,61,0.00,,---,0.00,VWS V14.01,2013-01-19 04:07:00,
2013-01-18 22:12:00,19.6,8.3,29.71,NW,311,0.0,0.0,61,0.00,,---,0.00,VWS V14.01,2013-01-19 04:12:00,
2013-01-18 22:17:00,19.8,8.5,29.71,NW,311,0.0,0.0,61,0.00,,---,0.00,VWS V14.01,2013-01-19 04:17:00,
2013-01-18 22:22:00,19.9,9.0,29.71,NW,311,0.0,0.0,62,0.00,,---,0.00,VWS V14.01,2013-01-19 04:22:00,
2013-01-18 22:28:00,19.9,9.0,29.71,NW,311,0.0,0.0,62,0.00,,---,0.00,VWS V14.01,2013-01-19 04:28:00,
2013-01-18 22:34:00,20.1,9.6,29.68,NW,311,0.0,0.0,63,0.00,,---,0.00,VWS V14.01,2013-01-19 04:34:00,
2013-01-18 22:39:00,20.3,9.7,29.68,NW,311,0.0,0.0,63,0.00,,---,0.00,VWS V14.01,2013-01-19 04:39:00,
2013-01-18 22:45:00,20.3,9.4,29.68,NW,311,0.0,0.0,62,0.00,,---,0.00,VWS V14.01,2013-01-19 04:45:00,
2013-01-18 22:50:00,20.3,9.4,29.71,NW,311,0.0,0.0,62,0.00,,---,0.00,VWS V14.01,2013-01-19 04:50:00,
2013-01-18 22:55:00,20.3,9.4,29.71,NW,311,0.0,0.0,62,0.00,,---,0.00,VWS V14.01,2013-01-19 04:55:00,
2013-01-18 23:00:00,20.3,9.4,29.71,NW,311,0.0,0.0,62,0.00,,---,0.00,VWS V14.01,2013-01-19 05:00:00,
2013-01-18 23:03:00,20.1,9.2,29.71,NW,311,0.0,0.0,62,0.00,,---,0.00,VWS V14.01,2013-01-19 05:03:00,
2013-01-18 23:04:00,20.1,9.2,29.71,NW,311,0.0,0.0,62,0.00,,---,0.00,VWS V14.01,2013-01-19 05:04:00,
2013-01-18 23:09:00,20.1,9.2,29.71,NW,311,0.0,0.0,62,0.00,,---,0.00,VWS V14.01,2013-01-19 05:09:00,
2013-01-18 23:11:00,20.1,9.2,29.71,NW,311,0.0,0.0,62,0.00,,---,0.00,VWS V14.01,2013-01-19 05:11:00,
2013-01-18 23:17:00,19.9,9.0,29.68,NW,311,0.0,0.0,62,0.00,,---,0.00,VWS V14.01,2013-01-19 05:17:00,
2013-01-18 23:22:00,19.8,8.9,29.68,NW,311,0.0,0.0,62,0.00,,---,0.00,VWS V14.01,2013-01-19 05:22:00,
2013-01-18 23:28:00,19.6,8.7,29.68,NW,311,0.0,0.0,62,0.00,,---,0.00,VWS V14.01,2013-01-19 05:28:00,
2013-01-18 23:33:00,19.6,8.7,29.68,NW,311,0.0,0.0,62,0.00,,---,0.00,VWS V14.01,2013-01-19 05:33:00,
2013-01-18 23:39:00,19.6,8.7,29.68,NW,311,0.0,0.0,62,0.00,,---,0.00,VWS V14.01,2013-01-19 05:39:00,
2013-01-18 23:44:00,19.4,8.9,29.68,NW,311,0.0,0.0,63,0.00,,---,0.00,VWS V14.01,2013-01-19 05:44:00,
2013-01-18 23:50:00,19.4,8.9,29.68,NW,311,0.0,0.0,63,0.00,,---,0.00,VWS V14.01,2013-01-19 05:50:00,
2013-01-18 23:56:00,19.4,8.9,29.68,NW,311,0.0,0.0,63,0.00,,---,0.00,VWS V14.01,2013-01-19 05:56:00,